Time,TemperatureF,DewpointF,PressureIn,WindDirection,WindDirectionDegrees,WindSpeedMPH,WindSpeedGustMPH,Humidity,HourlyPrecipIn,Conditions,Clouds,dailyrainin,SoftwareType,DateUTC
2013-07-05 00:00:00,77.6,75.1,30.16,ESE,119,0.0,2.0,92,0.00,,---,0.01,VWS V14.01,2013-07-05 04:00:00,
2013-07-05 00:01:00,77.6,75.1,30.16,ESE,119,0.0,0.0,92,0.00,,---,0.00,VWS V14.01,2013-07-05 04:01:00,
2013-07-05 00:03:00,77.5,75.0,30.16,ESE,118,0.0,0.0,92,0.00,,---,0.00,VWS V14.01,2013-07-05 04:03:00,
2013-07-05 00:08:00,77.5,75.3,30.17,ESE,118,0.0,1.0,93,0.00,,---,0.00,VWS V14.01,2013-07-05 04:08:00,
2013-07-05 00:13:00,77.5,75.3,30.16,East,84,0.0,1.0,93,0.00,,---,0.00,VWS V14.01,2013-07-05 04:13:00,
2013-07-05 00:18:00,77.5,75.3,30.16,East,92,0.0,1.0,93,0.00,,---,0.00,VWS V14.01,2013-07-05 04:18:00,
2013-07-05 00:23:00,77.5,75.3,30.17,ESE,105,0.0,1.0,93,0.00,,---,0.00,VWS V14.01,2013-07-05 04:23:00,
2013-07-05 00:28:00,77.5,75.3,30.16,ESE,103,0.0,1.0,93,0.00,,---,0.00,VWS V14.01,2013-07-05 04:28:00,
2013-07-05 00:33:00,77.5,75.3,30.16,East,95,0.0,1.0,93,0.00,,---,0.00,VWS V14.01,2013-07-05 04:33:00,
2013-07-05 00:39:00,77.5,75.3,30.16,East,95,0.0,1.0,93,0.00,,---,0.00,VWS V14.01,2013-07-05 04:39:00,
2013-07-05 00:44:00,77.5,75.3,30.15,East,85,0.0,2.0,93,0.00,,---,0.00,VWS V14.01,2013-07-05 04:44:00,
2013-07-05 00:49:00,77.5,75.3,30.15,East,82,0.0,2.0,93,0.00,,---,0.00,VWS V14.01,2013-07-05 04:49:00,
2013-07-05 00:54:00,77.4,75.2,30.15,East,82,0.0,2.0,93,0.00,,---,0.00,VWS V14.01,2013-07-05 04:54:00,
2013-07-05 00:59:00,77.3,75.1,30.15,East,82,0.0,2.0,93,0.00,,---,0.00,VWS V14.01,2013-07-05 04:59:00,
2013-07-05 01:04:00,77.3,75.1,30.15,East,82,0.0,0.0,93,0.00,,---,0.00,VWS V14.01,2013-07-05 05:04:00,
2013-07-05 01:09:00,77.2,75.0,30.14,East,89,0.0,1.0,93,0.00,,---,0.00,VWS V14.01,2013-07-05 05:09:00,
2013-07-05 01:14:00,77.2,75.0,30.14,East,82,0.0,3.0,93,0.00,,---,0.00,VWS V14.01,2013-07-05 05:14:00,
2013-07-05 01:19:00,77.2,75.0,30.14,ENE,67,0.0,3.0,93,0.00,,---,0.00,VWS V14.01,2013-07-05 05:19:00,
2013-07-05 01:24:00,77.1,74.6,30.14,ENE,67,0.0,3.0,92,0.00,,---,0.00,VWS V14.01,2013-07-05 05:24:00,
2013-07-05 01:29:00,77.0,74.8,30.14,ENE,67,0.0,3.0,93,0.00,,---,0.00,VWS V14.01,2013-07-05 05:29:00,
2013-07-05 01:34:00,76.9,74.7,30.14,ENE,66,0.0,0.0,93,0.00,,---,0.00,VWS V14.01,2013-07-05 05:34:00,
2013-07-05 01:39:00,76.8,74.6,30.14,ENE,67,0.0,0.0,93,0.00,,---,0.00,VWS V14.01,2013-07-05 05:39:00,
2013-07-05 01:45:00,76.7,74.5,30.14,ENE,66,0.0,0.0,93,0.00,,---,0.00,VWS V14.01,2013-07-05 05:45:00,
2013-07-05 01:50:00,76.6,74.4,30.14,ENE,63,0.0,1.0,93,0.00,,---,0.00,VWS V14.01,2013-07-05 05:50:00,
2013-07-05 01:55:00,76.5,74.0,30.14,ENE,64,0.0,1.0,92,0.00,,---,0.00,VWS V14.01,2013-07-05 05:55:00,
2013-07-05 02:00:00,76.4,74.2,30.14,ENE,64,0.0,0.0,93,0.00,,---,0.00,VWS V14.01,2013-07-05 06:00:00,
2013-07-05 02:05:00,76.4,74.2,30.13,ENE,64,0.0,0.0,93,0.00,,---,0.00,VWS V14.01,2013-07-05 06:05:00,
2013-07-05 02:10:00,76.2,74.0,30.14,ENE,64,0.0,0.0,93,0.00,,---,0.00,VWS V14.01,2013-07-05 06:10:00,
2013-07-05 02:15:00,76.2,74.0,30.13,ENE,64,0.0,0.0,93,0.00,,---,0.00,VWS V14.01,2013-07-05 06:15:00,
2013-07-05 02:20:00,76.1,73.9,30.13,ENE,63,0.0,0.0,93,0.00,,---,0.00,VWS V14.01,2013-07-05 06:20:00,
2013-07-05 02:25:00,76.0,73.8,30.13,ENE,64,0.0,0.0,93,0.00,,---,0.00,VWS V14.01,2013-07-05 06:25:00,
2013-07-05 02:30:00,75.8,73.6,30.13,ENE,64,0.0,0.0,93,0.00,,---,0.00,VWS V14.01,2013-07-05 06:30:00,
2013-07-05 02:36:00,75.7,73.5,30.14,ENE,64,0.0,0.0,93,0.00,,---,0.00,VWS V14.01,2013-07-05 06:36:00,
2013-07-05 02:41:00,75.6,73.4,30.13,ENE,64,0.0,0.0,93,0.00,,---,0.00,VWS V14.01,2013-07-05 06:41:00,
2013-07-05 02:46:00,75.4,73.2,30.13,ENE,64,0.0,0.0,93,0.00,,---,0.00,VWS V14.01,2013-07-05 06:46:00,
2013-07-05 02:51:00,75.3,72.8,30.13,ENE,64,0.0,0.0,92,0.00,,---,0.00,VWS V14.01,2013-07-05 06:51:00,
2013-07-05 02:56:00,75.4,72.9,30.13,ENE,64,0.0,1.0,92,0.00,,---,0.00,VWS V14.01,2013-07-05 06:56:00,
2013-07-05 03:01:00,75.4,72.9,30.12,ENE,65,0.0,0.0,92,0.00,,---,0.00,VWS V14.01,2013-07-05 07:01:00,
2013-07-05 03:06:00,75.5,73.0,30.12,ENE,65,0.0,0.0,92,0.00,,---,0.00,VWS V14.01,2013-07-05 07:06:00,
2013-07-05 03:11:00,75.5,73.0,30.12,ENE,65,0.0,0.0,92,0.00,,---,0.00,VWS V14.01,2013-07-05 07:11:00,
2013-07-05 03:16:00,75.6,73.1,30.12,ENE,65,0.0,0.0,92,0.00,,---,0.00,VWS V14.01,2013-07-05 07:16:00,
2013-07-05 03:21:00,75.7,73.2,30.12,ENE,65,0.0,0.0,92,0.00,,---,0.00,VWS V14.01,2013-07-05 07:21:00,
2013-07-05 03:26:00,75.8,73.3,30.12,ENE,65,0.0,0.0,92,0.00,,---,0.00,VWS V14.01,2013-07-05 07:26:00,
2013-07-05 03:31:00,75.9,73.4,30.13,ENE,65,0.0,0.0,92,0.00,,---,0.00,VWS V14.01,2013-07-05 07:31:00,
2013-07-05 03:36:00,76.0,73.5,30.12,ENE,65,0.0,0.0,92,0.00,,---,0.00,VWS V14.01,2013-07-05 07:36:00,
2013-07-05 03:41:00,76.1,73.6,30.12,ENE,65,0.0,0.0,92,0.00,,---,0.00,VWS V14.01,2013-07-05 07:41:00,
2013-07-05 03:46:00,76.2,73.7,30.12,ENE,64,0.0,0.0,92,0.00,,---,0.00,VWS V14.01,2013-07-05 07:46:00,
2013-07-05 03:51:00,76.3,73.8,30.12,ESE,112,0.0,1.0,92,0.00,,---,0.00,VWS V14.01,2013-07-05 07:51:00,
2013-07-05 03:56:00,76.4,73.9,30.12,ESE,112,0.0,1.0,92,0.00,,---,0.00,VWS V14.01,2013-07-05 07:56:00,
2013-07-05 04:01:00,76.4,73.9,30.11,ESE,111,0.0,0.0,92,0.00,,---,0.00,VWS V14.01,2013-07-05 08:01:00,
2013-07-05 04:06:00,76.5,74.0,30.11,ESE,111,0.0,1.0,92,0.00,,---,0.00,VWS V14.01,2013-07-05 08:06:00,
2013-07-05 04:11:00,76.4,73.9,30.10,ESE,111,0.0,1.0,92,0.00,,---,0.00,VWS V14.01,2013-07-05 08:11:00,
2013-07-05 04:16:00,76.4,73.9,30.10,NE,54,4.0,4.0,92,0.00,,---,0.00,VWS V14.01,2013-07-05 08:16:00,
2013-07-05 04:22:00,76.4,74.2,30.09,NE,48,1.0,4.0,93,0.00,,---,0.00,VWS V14.01,2013-07-05 08:22:00,
2013-07-05 04:27:00,76.4,74.2,30.09,ENE,59,0.0,4.0,93,0.00,,---,0.00,VWS V14.01,2013-07-05 08:27:00,
2013-07-05 04:32:00,76.4,74.2,30.09,East,96,0.0,1.0,93,0.00,,---,0.00,VWS V14.01,2013-07-05 08:32:00,
2013-07-05 04:37:00,76.3,74.1,30.09,East,96,0.0,1.0,93,0.00,,---,0.00,VWS V14.01,2013-07-05 08:37:00,
2013-07-05 04:42:00,76.3,74.1,30.09,ENE,77,0.0,1.0,93,0.00,,---,0.00,VWS V14.01,2013-07-05 08:42:00,
2013-07-05 04:47:00,76.3,74.1,30.09,ENE,66,1.0,4.0,93,0.00,,---,0.00,VWS V14.01,2013-07-05 08:47:00,
2013-07-05 04:52:00,76.3,74.1,30.09,NE,48,0.0,4.0,93,0.00,,---,0.00,VWS V14.01,2013-07-05 08:52:00,
2013-07-05 04:57:00,76.3,74.1,30.09,ENE,73,2.0,4.0,93,0.00,,---,0.00,VWS V14.01,2013-07-05 08:57:00,
2013-07-05 05:02:00,76.3,74.1,30.09,ENE,78,0.0,2.0,93,0.00,,---,0.00,VWS V14.01,2013-07-05 09:02:00,
2013-07-05 05:07:00,76.3,74.1,30.09,ENE,64,2.0,3.0,93,0.00,,---,0.00,VWS V14.01,2013-07-05 09:07:00,
2013-07-05 05:12:00,76.3,74.1,30.09,ENE,65,1.0,3.0,93,0.00,,---,0.00,VWS V14.01,2013-07-05 09:12:00,
2013-07-05 05:18:00,76.2,74.0,30.09,East,87,1.0,3.0,93,0.00,,---,0.00,VWS V14.01,2013-07-05 09:18:00,
2013-07-05 05:23:00,76.2,74.0,30.09,ENE,70,0.0,3.0,93,0.00,,---,0.00,VWS V14.01,2013-07-05 09:23:00,
2013-07-05 05:28:00,76.2,73.7,30.09,East,87,0.0,3.0,92,0.00,,---,0.00,VWS V14.01,2013-07-05 09:28:00,
2013-07-05 05:34:00,76.2,73.7,30.10,East,95,1.0,1.0,92,0.00,,---,0.00,VWS V14.01,2013-07-05 09:34:00,
2013-07-05 05:39:00,76.2,73.7,30.10,East,96,0.0,1.0,92,0.00,,---,0.00,VWS V14.01,2013-07-05 09:39:00,
2013-07-05 05:45:00,76.1,73.6,30.10,East,96,0.0,1.0,92,0.00,,---,0.00,VWS V14.01,2013-07-05 09:45:00,
2013-07-05 05:50:00,76.1,73.9,30.10,East,94,0.0,1.0,93,0.00,,---,0.00,VWS V14.01,2013-07-05 09:50:00,
2013-07-05 05:56:00,76.0,73.8,30.11,NE,49,0.0,2.0,93,0.00,,---,0.00,VWS V14.01,2013-07-05 09:56:00,
2013-07-05 06:01:00,75.9,73.7,30.11,NE,47,0.0,0.0,93,0.00,,---,0.00,VWS V14.01,2013-07-05 10:01:00,
2013-07-05 06:06:00,75.8,73.6,30.11,NE,49,0.0,0.0,93,0.00,,---,0.00,VWS V14.01,2013-07-05 10:06:00,
2013-07-05 06:11:00,75.7,73.5,30.11,NE,48,0.0,0.0,93,0.00,,---,0.00,VWS V14.01,2013-07-05 10:11:00,
2013-07-05 06:16:00,75.6,73.4,30.11,NE,48,0.0,0.0,93,0.00,,---,0.00,VWS V14.01,2013-07-05 10:16:00,
2013-07-05 06:21:00,75.6,73.4,30.11,NE,50,0.0,1.0,93,0.00,,---,0.00,VWS V14.01,2013-07-05 10:21:00,
2013-07-05 06:27:00,75.5,73.3,30.11,NE,50,0.0,1.0,93,0.00,,---,0.00,VWS V14.01,2013-07-05 10:27:00,
2013-07-05 06:32:00,75.4,73.2,30.11,NE,50,0.0,0.0,93,0.00,,---,0.00,VWS V14.01,2013-07-05 10:32:00,
2013-07-05 06:37:00,75.5,73.3,30.12,NW,325,0.0,1.0,93,0.00,,---,0.00,VWS V14.01,2013-07-05 10:37:00,
2013-07-05 06:42:00,75.5,73.3,30.12,NW,325,0.0,1.0,93,0.00,,---,0.00,VWS V14.01,2013-07-05 10:42:00,
2013-07-05 06:47:00,75.5,73.3,30.12,NW,325,0.0,1.0,93,0.00,,---,0.00,VWS V14.01,2013-07-05 10:47:00,
2013-07-05 06:52:00,75.5,73.3,30.12,NW,325,0.0,1.0,93,0.00,,---,0.00,VWS V14.01,2013-07-05 10:52:00,
2013-07-05 06:57:00,75.7,73.8,30.12,NW,321,0.0,1.0,94,0.00,,---,0.00,VWS V14.01,2013-07-05 10:57:00,
2013-07-05 07:02:00,75.9,74.1,30.13,NW,316,0.0,1.0,94,0.00,,---,0.00,VWS V14.01,2013-07-05 11:02:00,
2013-07-05 07:08:00,76.2,74.0,30.13,NW,316,0.0,1.0,93,0.00,,---,0.00,VWS V14.01,2013-07-05 11:08:00,
2013-07-05 07:13:00,76.5,74.3,30.13,NW,316,0.0,1.0,93,0.00,,---,0.00,VWS V14.01,2013-07-05 11:13:00,
2013-07-05 07:19:00,77.0,74.8,30.13,NW,316,0.0,1.0,93,0.00,,---,0.00,VWS V14.01,2013-07-05 11:19:00,
2013-07-05 07:24:00,77.2,74.7,30.13,NW,316,0.0,1.0,92,0.00,,---,0.00,VWS V14.01,2013-07-05 11:24:00,
2013-07-05 07:30:00,77.5,74.7,30.14,NW,316,0.0,1.0,91,0.00,,---,0.00,VWS V14.01,2013-07-05 11:30:00,
2013-07-05 07:35:00,77.5,74.7,30.14,NNE,18,0.0,1.0,91,0.00,,---,0.00,VWS V14.01,2013-07-05 11:35:00,
2013-07-05 07:40:00,77.3,74.5,30.13,NNE,22,0.0,1.0,91,0.00,,---,0.00,VWS V14.01,2013-07-05 11:40:00,
2013-07-05 07:45:00,77.2,74.4,30.14,NNE,22,0.0,1.0,91,0.00,,---,0.00,VWS V14.01,2013-07-05 11:45:00,
2013-07-05 07:50:00,77.2,74.4,30.14,NNE,23,0.0,1.0,91,0.00,,---,0.00,VWS V14.01,2013-07-05 11:50:00,
2013-07-05 07:55:00,77.2,74.7,30.14,NE,36,0.0,1.0,92,0.00,,---,0.00,VWS V14.01,2013-07-05 11:55:00,
2013-07-05 08:00:00,77.2,74.7,30.14,ENE,71,0.0,0.0,92,0.00,,---,0.00,VWS V14.01,2013-07-05 12:00:00,
2013-07-05 08:05:00,77.4,75.2,30.14,ENE,63,0.0,1.0,93,0.00,,---,0.00,VWS V14.01,2013-07-05 12:05:00,
2013-07-05 08:11:00,77.8,75.6,30.14,ENE,63,0.0,1.0,93,0.00,,---,0.00,VWS V14.01,2013-07-05 12:11:00,
2013-07-05 08:16:00,79.0,76.2,30.14,ENE,63,2.0,2.0,91,0.00,,---,0.00,VWS V14.01,2013-07-05 12:16:00,
2013-07-05 08:22:00,80.0,76.5,30.14,East,87,0.0,3.0,89,0.00,,---,0.00,VWS V14.01,2013-07-05 12:22:00,
2013-07-05 08:28:00,81.5,77.3,30.14,East,84,1.0,1.0,87,0.00,,---,0.00,VWS V14.01,2013-07-05 12:28:00,
2013-07-05 08:33:00,82.5,77.5,30.14,ESE,110,1.0,1.0,85,0.00,,---,0.00,VWS V14.01,2013-07-05 12:33:00,
2013-07-05 08:38:00,83.3,78.0,30.14,NE,44,0.0,3.0,84,0.00,,---,0.00,VWS V14.01,2013-07-05 12:38:00,
2013-07-05 08:44:00,83.9,77.4,30.15,NNE,31,2.0,3.0,81,0.00,,---,0.00,VWS V14.01,2013-07-05 12:44:00,
2013-07-05 08:49:00,84.4,77.2,30.15,SE,135,1.0,6.0,79,0.00,,---,0.00,VWS V14.01,2013-07-05 12:49:00,
2013-07-05 08:54:00,84.3,77.1,30.15,NE,47,3.0,6.0,79,0.00,,---,0.00,VWS V14.01,2013-07-05 12:54:00,
2013-07-05 08:59:00,83.7,76.5,30.15,ENE,58,4.0,7.0,79,0.00,,---,0.00,VWS V14.01,2013-07-05 12:59:00,
2013-07-05 09:05:00,83.2,76.4,30.15,East,82,3.0,4.0,80,0.00,,---,0.00,VWS V14.01,2013-07-05 13:05:00,
2013-07-05 09:10:00,82.6,76.2,30.15,ESE,110,1.0,8.0,81,0.00,,---,0.00,VWS V14.01,2013-07-05 13:10:00,
2013-07-05 09:15:00,82.6,76.9,30.15,SE,136,2.0,8.0,83,0.00,,---,0.00,VWS V14.01,2013-07-05 13:15:00,
2013-07-05 09:20:00,83.1,77.0,30.15,ESE,120,1.0,8.0,82,0.00,,---,0.00,VWS V14.01,2013-07-05 13:20:00,
2013-07-05 09:25:00,83.3,76.9,30.15,East,85,0.0,8.0,81,0.00,,---,0.00,VWS V14.01,2013-07-05 13:25:00,
2013-07-05 09:30:00,84.1,77.3,30.14,NNE,18,0.0,2.0,80,0.00,,---,0.00,VWS V14.01,2013-07-05 13:30:00,
2013-07-05 09:36:00,84.7,77.1,30.15,SE,129,3.0,4.0,78,0.00,,---,0.00,VWS V14.01,2013-07-05 13:36:00,
2013-07-05 09:41:00,84.5,76.9,30.15,ENE,75,3.0,8.0,78,0.00,,---,0.00,VWS V14.01,2013-07-05 13:41:00,
2013-07-05 09:46:00,84.3,77.1,30.15,NE,54,4.0,9.0,79,0.00,,---,0.00,VWS V14.01,2013-07-05 13:46:00,
2013-07-05 09:51:00,84.2,76.6,30.15,SE,131,1.0,9.0,78,0.00,,---,0.00,VWS V14.01,2013-07-05 13:51:00,
2013-07-05 09:57:00,84.3,76.7,30.15,East,97,2.0,9.0,78,0.00,,---,0.00,VWS V14.01,2013-07-05 13:57:00,
2013-07-05 10:02:00,84.4,76.0,30.15,NNE,13,6.0,6.0,76,0.00,,---,0.00,VWS V14.01,2013-07-05 14:02:00,
2013-07-05 10:07:00,83.6,75.6,30.15,ESE,122,1.0,8.0,77,0.00,,---,0.00,VWS V14.01,2013-07-05 14:07:00,
2013-07-05 10:13:00,82.9,75.3,30.15,ESE,109,1.0,9.0,78,0.00,,---,0.00,VWS V14.01,2013-07-05 14:13:00,
2013-07-05 10:18:00,83.0,76.2,30.15,North,355,1.0,9.0,80,0.00,,---,0.00,VWS V14.01,2013-07-05 14:18:00,
2013-07-05 10:24:00,83.8,76.2,30.15,SE,131,1.0,11.0,78,0.00,,---,0.00,VWS V14.01,2013-07-05 14:24:00,
2013-07-05 10:29:00,84.3,77.1,30.15,ESE,106,3.0,11.0,79,0.00,,---,0.00,VWS V14.01,2013-07-05 14:29:00,
2013-07-05 10:34:00,84.7,76.7,30.15,East,83,1.0,4.0,77,0.00,,---,0.00,VWS V14.01,2013-07-05 14:34:00,
2013-07-05 10:39:00,83.1,76.3,30.16,South,181,2.0,12.0,80,0.07,,---,0.07,VWS V14.01,2013-07-05 14:39:00,
2013-07-05 10:44:00,80.7,75.1,30.16,SW,217,1.0,12.0,83,0.08,,---,0.08,VWS V14.01,2013-07-05 14:44:00,
2013-07-05 10:49:00,79.8,75.6,30.16,East,91,1.0,12.0,87,0.08,,---,0.08,VWS V14.01,2013-07-05 14:49:00,
2013-07-05 10:54:00,79.9,76.7,30.16,ESE,105,3.0,12.0,90,0.08,,---,0.08,VWS V14.01,2013-07-05 14:54:00,
2013-07-05 10:59:00,80.5,77.6,30.16,South,170,2.0,12.0,91,0.08,,---,0.08,VWS V14.01,2013-07-05 14:59:00,
2013-07-05 11:04:00,80.8,77.3,30.16,East,98,2.0,6.0,89,0.08,,---,0.08,VWS V14.01,2013-07-05 15:04:00,
2013-07-05 11:09:00,81.0,77.1,30.16,SE,129,1.0,6.0,88,0.08,,---,0.08,VWS V14.01,2013-07-05 15:09:00,
2013-07-05 11:15:00,81.7,77.8,30.16,ENE,71,2.0,6.0,88,0.08,,---,0.08,VWS V14.01,2013-07-05 15:15:00,
2013-07-05 11:20:00,82.6,77.6,30.16,NW,326,4.0,6.0,85,0.08,,---,0.08,VWS V14.01,2013-07-05 15:20:00,
2013-07-05 11:25:00,83.3,77.2,30.16,SE,143,1.0,10.0,82,0.08,,---,0.08,VWS V14.01,2013-07-05 15:25:00,
2013-07-05 11:30:00,84.1,78.0,30.15,ENE,65,4.0,5.0,82,0.08,,---,0.08,VWS V14.01,2013-07-05 15:30:00,
2013-07-05 11:35:00,84.5,76.9,30.15,ESE,117,4.0,11.0,78,0.08,,---,0.08,VWS V14.01,2013-07-05 15:35:00,
2013-07-05 11:40:00,84.6,77.0,30.15,NE,50,3.0,11.0,78,0.08,,---,0.08,VWS V14.01,2013-07-05 15:40:00,
2013-07-05 11:46:00,84.9,77.7,30.15,NNE,16,3.0,12.0,79,0.08,,---,0.08,VWS V14.01,2013-07-05 15:46:00,
2013-07-05 11:50:00,85.0,76.2,30.15,ESE,106,2.0,12.0,75,0.08,,---,0.08,VWS V14.01,2013-07-05 15:50:00,
2013-07-05 11:55:00,85.3,77.7,30.15,NNE,20,3.0,12.0,78,0.08,,---,0.08,VWS V14.01,2013-07-05 15:55:00,
2013-07-05 12:00:00,85.4,77.0,30.15,SE,132,2.0,12.0,76,0.08,,---,0.08,VWS V14.01,2013-07-05 16:00:00,
2013-07-05 12:05:00,85.8,77.4,30.15,East,88,2.0,8.0,76,0.00,,---,0.08,VWS V14.01,2013-07-05 16:05:00,
2013-07-05 12:10:00,86.0,76.8,30.15,NNE,33,3.0,8.0,74,0.00,,---,0.08,VWS V14.01,2013-07-05 16:10:00,
2013-07-05 12:15:00,85.7,76.1,30.15,East,91,5.0,13.0,73,0.00,,---,0.08,VWS V14.01,2013-07-05 16:15:00,
2013-07-05 12:20:00,85.6,76.4,30.15,ESE,108,3.0,14.0,74,0.00,,---,0.08,VWS V14.01,2013-07-05 16:20:00,
2013-07-05 12:25:00,85.9,76.7,30.15,ENE,70,9.0,14.0,74,0.00,,---,0.08,VWS V14.01,2013-07-05 16:25:00,
2013-07-05 12:30:00,86.0,77.2,30.15,NNE,15,13.0,13.0,75,0.00,,---,0.08,VWS V14.01,2013-07-05 16:30:00,
2013-07-05 12:35:00,86.4,76.3,30.15,SSE,155,2.0,13.0,72,0.00,,---,0.08,VWS V14.01,2013-07-05 16:35:00,
2013-07-05 12:40:00,86.2,76.1,30.14,ESE,116,4.0,13.0,72,0.00,,---,0.08,VWS V14.01,2013-07-05 16:40:00,
2013-07-05 12:46:00,85.9,75.8,30.14,NNE,29,9.0,15.0,72,0.00,,---,0.08,VWS V14.01,2013-07-05 16:46:00,
2013-07-05 12:51:00,86.4,76.7,30.14,SE,143,1.0,15.0,73,0.00,,---,0.08,VWS V14.01,2013-07-05 16:51:00,
2013-07-05 12:56:00,86.5,76.0,30.14,SE,145,2.0,15.0,71,0.00,,---,0.08,VWS V14.01,2013-07-05 16:56:00,
2013-07-05 13:01:00,86.4,75.9,30.14,South,191,4.0,6.0,71,0.00,,---,0.08,VWS V14.01,2013-07-05 17:01:00,
2013-07-05 13:06:00,86.6,75.7,30.14,ENE,63,4.0,12.0,70,0.00,,---,0.08,VWS V14.01,2013-07-05 17:06:00,
2013-07-05 13:11:00,86.6,76.5,30.14,NNW,346,2.0,13.0,72,0.00,,---,0.08,VWS V14.01,2013-07-05 17:11:00,
2013-07-05 13:16:00,87.4,76.8,30.14,SSE,152,3.0,13.0,71,0.00,,---,0.08,VWS V14.01,2013-07-05 17:16:00,
2013-07-05 13:21:00,87.4,76.0,30.14,ENE,77,5.0,13.0,69,0.00,,---,0.08,VWS V14.01,2013-07-05 17:21:00,
2013-07-05 13:27:00,87.6,76.2,30.14,SE,138,4.0,14.0,69,0.00,,---,0.08,VWS V14.01,2013-07-05 17:27:00,
2013-07-05 13:32:00,87.4,76.0,30.14,West,267,3.0,8.0,69,0.00,,---,0.08,VWS V14.01,2013-07-05 17:32:00,
2013-07-05 13:37:00,87.7,76.3,30.14,ESE,115,3.0,11.0,69,0.00,,---,0.08,VWS V14.01,2013-07-05 17:37:00,
2013-07-05 13:42:00,87.9,76.5,30.14,SE,140,4.0,11.0,69,0.00,,---,0.08,VWS V14.01,2013-07-05 17:42:00,
2013-07-05 13:47:00,87.5,76.1,30.14,SSE,167,3.0,11.0,69,0.00,,---,0.08,VWS V14.01,2013-07-05 17:47:00,
2013-07-05 13:52:00,87.0,76.0,30.14,North,349,2.0,11.0,70,0.00,,---,0.08,VWS V14.01,2013-07-05 17:52:00,
2013-07-05 13:57:00,87.1,77.0,30.14,East,97,3.0,13.0,72,0.00,,---,0.08,VWS V14.01,2013-07-05 17:57:00,
2013-07-05 14:02:00,86.8,75.8,30.14,ESE,113,3.0,12.0,70,0.00,,---,0.08,VWS V14.01,2013-07-05 18:02:00,
2013-07-05 14:08:00,86.3,76.2,30.14,ESE,122,1.0,12.0,72,0.00,,---,0.08,VWS V14.01,2013-07-05 18:08:00,
2013-07-05 14:13:00,86.4,76.3,30.14,SW,228,3.0,12.0,72,0.00,,---,0.08,VWS V14.01,2013-07-05 18:13:00,
2013-07-05 14:18:00,86.9,76.4,30.14,SE,131,1.0,12.0,71,0.00,,---,0.08,VWS V14.01,2013-07-05 18:18:00,
2013-07-05 14:23:00,87.0,76.0,30.14,SE,129,2.0,12.0,70,0.00,,---,0.08,VWS V14.01,2013-07-05 18:23:00,
2013-07-05 14:28:00,87.4,76.0,30.14,SE,145,3.0,12.0,69,0.00,,---,0.08,VWS V14.01,2013-07-05 18:28:00,
2013-07-05 14:33:00,87.9,75.1,30.14,SSW,207,4.0,8.0,66,0.00,,---,0.08,VWS V14.01,2013-07-05 18:33:00,
2013-07-05 14:38:00,87.8,75.9,30.14,East,88,2.0,8.0,68,0.00,,---,0.08,VWS V14.01,2013-07-05 18:38:00,
2013-07-05 14:43:00,88.1,76.7,30.14,SE,129,3.0,8.0,69,0.00,,---,0.08,VWS V14.01,2013-07-05 18:43:00,
2013-07-05 14:48:00,88.0,76.1,30.13,South,187,4.0,10.0,68,0.00,,---,0.08,VWS V14.01,2013-07-05 18:48:00,
2013-07-05 14:53:00,87.7,76.3,30.13,ENE,66,2.0,10.0,69,0.00,,---,0.08,VWS V14.01,2013-07-05 18:53:00,
2013-07-05 14:54:00,87.7,76.3,30.13,WSW,252,2.0,10.0,69,0.00,,---,0.08,VWS V14.01,2013-07-05 18:54:00,
2013-07-05 14:59:00,88.2,76.8,30.12,SE,127,4.0,10.0,69,0.00,,---,0.08,VWS V14.01,2013-07-05 18:59:00,
2013-07-05 15:05:00,88.0,77.0,30.12,NE,54,4.0,10.0,70,0.00,,---,0.08,VWS V14.01,2013-07-05 19:05:00,
2013-07-05 15:10:00,87.7,76.3,30.12,ENE,78,3.0,10.0,69,0.00,,---,0.08,VWS V14.01,2013-07-05 19:10:00,
2013-07-05 15:15:00,87.2,76.2,30.11,NE,41,3.0,11.0,70,0.00,,---,0.08,VWS V14.01,2013-07-05 19:15:00,
2013-07-05 15:20:00,87.1,76.6,30.11,ESE,103,4.0,11.0,71,0.00,,---,0.08,VWS V14.01,2013-07-05 19:20:00,
2013-07-05 15:25:00,87.6,76.2,30.11,NE,34,3.0,11.0,69,0.00,,---,0.08,VWS V14.01,2013-07-05 19:25:00,
2013-07-05 15:30:00,87.0,75.6,30.11,SE,133,3.0,5.0,69,0.00,,---,0.08,VWS V14.01,2013-07-05 19:30:00,
2013-07-05 15:35:00,86.7,74.4,30.11,ENE,77,7.0,9.0,67,0.00,,---,0.08,VWS V14.01,2013-07-05 19:35:00,
2013-07-05 15:40:00,87.0,74.7,30.10,ESE,115,3.0,10.0,67,0.00,,---,0.08,VWS V14.01,2013-07-05 19:40:00,
2013-07-05 15:45:00,86.6,73.4,30.10,SE,129,2.0,15.0,65,0.00,,---,0.08,VWS V14.01,2013-07-05 19:45:00,
2013-07-05 15:50:00,86.3,74.5,30.10,East,86,5.0,15.0,68,0.00,,---,0.08,VWS V14.01,2013-07-05 19:50:00,
2013-07-05 15:56:00,86.6,76.1,30.10,West,277,5.0,15.0,71,0.00,,---,0.08,VWS V14.01,2013-07-05 19:56:00,
2013-07-05 16:01:00,86.8,75.8,30.10,SE,140,3.0,4.0,70,0.00,,---,0.08,VWS V14.01,2013-07-05 20:01:00,
2013-07-05 16:06:00,87.0,76.0,30.10,East,80,4.0,15.0,70,0.00,,---,0.08,VWS V14.01,2013-07-05 20:06:00,
2013-07-05 16:11:00,87.0,76.5,30.10,ESE,113,1.0,15.0,71,0.00,,---,0.08,VWS V14.01,2013-07-05 20:11:00,
2013-07-05 16:16:00,86.9,76.4,30.10,North,1,2.0,15.0,71,0.00,,---,0.08,VWS V14.01,2013-07-05 20:16:00,
2013-07-05 16:21:00,86.6,76.5,30.10,NE,51,7.0,15.0,72,0.00,,---,0.08,VWS V14.01,2013-07-05 20:21:00,
2013-07-05 16:26:00,86.0,75.9,30.09,ESE,110,10.0,15.0,72,0.00,,---,0.08,VWS V14.01,2013-07-05 20:26:00,
2013-07-05 16:31:00,86.2,76.5,30.09,East,81,2.0,3.0,73,0.00,,---,0.08,VWS V14.01,2013-07-05 20:31:00,
2013-07-05 16:36:00,87.0,76.9,30.09,SE,126,3.0,6.0,72,0.00,,---,0.08,VWS V14.01,2013-07-05 20:36:00,
2013-07-05 16:42:00,86.5,76.4,30.09,SSW,201,2.0,12.0,72,0.00,,---,0.08,VWS V14.01,2013-07-05 20:42:00,
2013-07-05 16:47:00,86.4,76.3,30.09,SSE,152,2.0,12.0,72,0.00,,---,0.08,VWS V14.01,2013-07-05 20:47:00,
2013-07-05 16:52:00,86.3,75.4,30.09,NE,44,6.0,12.0,70,0.00,,---,0.08,VWS V14.01,2013-07-05 20:52:00,
2013-07-05 16:57:00,85.8,75.7,30.09,East,97,3.0,12.0,72,0.00,,---,0.08,VWS V14.01,2013-07-05 20:57:00,
2013-07-05 17:02:00,85.4,75.8,30.09,South,186,2.0,7.0,73,0.00,,---,0.08,VWS V14.01,2013-07-05 21:02:00,
2013-07-05 17:07:00,85.0,75.8,30.09,ESE,118,3.0,9.0,74,0.00,,---,0.08,VWS V14.01,2013-07-05 21:07:00,
2013-07-05 17:12:00,84.8,75.6,30.08,SSW,197,3.0,9.0,74,0.00,,---,0.08,VWS V14.01,2013-07-05 21:12:00,
2013-07-05 17:17:00,84.7,75.9,30.08,ENE,57,4.0,9.0,75,0.00,,---,0.08,VWS V14.01,2013-07-05 21:17:00,
2013-07-05 17:23:00,84.4,75.6,30.08,NE,54,3.0,11.0,75,0.00,,---,0.08,VWS V14.01,2013-07-05 21:23:00,
2013-07-05 17:28:00,84.4,76.0,30.08,NE,41,8.0,12.0,76,0.00,,---,0.08,VWS V14.01,2013-07-05 21:28:00,
2013-07-05 17:33:00,84.6,76.2,30.09,East,91,2.0,12.0,76,0.00,,---,0.08,VWS V14.01,2013-07-05 21:33:00,
2013-07-05 17:38:00,84.4,75.6,30.08,SE,139,2.0,12.0,75,0.00,,---,0.08,VWS V14.01,2013-07-05 21:38:00,
2013-07-05 17:43:00,84.0,75.6,30.09,NNE,15,2.0,13.0,76,0.00,,---,0.08,VWS V14.01,2013-07-05 21:43:00,
2013-07-05 17:48:00,83.8,75.8,30.09,SE,145,2.0,13.0,77,0.00,,---,0.08,VWS V14.01,2013-07-05 21:48:00,
2013-07-05 17:53:00,84.2,75.8,30.09,NNE,16,2.0,13.0,76,0.00,,---,0.08,VWS V14.01,2013-07-05 21:53:00,
2013-07-05 17:59:00,84.1,75.3,30.09,NE,34,3.0,13.0,75,0.00,,---,0.08,VWS V14.01,2013-07-05 21:59:00,
2013-07-05 18:03:00,83.7,75.3,30.09,East,82,3.0,8.0,76,0.00,,---,0.08,VWS V14.01,2013-07-05 22:03:00,
2013-07-05 18:08:00,84.1,76.1,30.09,ESE,122,1.0,8.0,77,0.00,,---,0.08,VWS V14.01,2013-07-05 22:08:00,
2013-07-05 18:14:00,84.0,75.6,30.09,NE,46,6.0,10.0,76,0.00,,---,0.08,VWS V14.01,2013-07-05 22:14:00,
2013-07-05 18:19:00,83.7,75.3,30.09,SE,124,2.0,10.0,76,0.00,,---,0.08,VWS V14.01,2013-07-05 22:19:00,
2013-07-05 18:21:00,83.6,75.2,30.09,SSE,150,3.0,10.0,76,0.00,,---,0.08,VWS V14.01,2013-07-05 22:21:00,
2013-07-05 18:26:00,83.4,75.4,30.09,East,88,2.0,10.0,77,0.00,,---,0.08,VWS V14.01,2013-07-05 22:26:00,
2013-07-05 18:31:00,83.2,75.2,30.10,South,188,1.0,8.0,77,0.00,,---,0.08,VWS V14.01,2013-07-05 22:31:00,
2013-07-05 18:36:00,83.3,75.3,30.10,ESE,119,4.0,11.0,77,0.00,,---,0.08,VWS V14.01,2013-07-05 22:36:00,
2013-07-05 18:41:00,83.4,75.4,30.10,ESE,109,1.0,11.0,77,0.00,,---,0.08,VWS V14.01,2013-07-05 22:41:00,
2013-07-05 18:46:00,83.6,75.2,30.10,SSW,203,2.0,11.0,76,0.00,,---,0.08,VWS V14.01,2013-07-05 22:46:00,
2013-07-05 18:51:00,83.6,75.2,30.10,SE,143,2.0,11.0,76,0.00,,---,0.08,VWS V14.01,2013-07-05 22:51:00,
2013-07-05 18:56:00,83.3,74.9,30.10,SW,217,1.0,11.0,76,0.00,,---,0.08,VWS V14.01,2013-07-05 22:56:00,
2013-07-05 19:02:00,83.2,75.2,30.10,ENE,72,2.0,6.0,77,0.00,,---,0.08,VWS V14.01,2013-07-05 23:02:00,
2013-07-05 19:07:00,83.1,75.2,30.10,ESE,122,2.0,10.0,77,0.00,,---,0.08,VWS V14.01,2013-07-05 23:07:00,
2013-07-05 19:12:00,83.0,75.4,30.10,ESE,119,0.0,10.0,78,0.00,,---,0.08,VWS V14.01,2013-07-05 23:12:00,
2013-07-05 19:17:00,82.9,75.3,30.10,SE,144,1.0,10.0,78,0.00,,---,0.08,VWS V14.01,2013-07-05 23:17:00,
2013-07-05 19:22:00,82.8,75.2,30.10,ESE,113,2.0,10.0,78,0.00,,---,0.08,VWS V14.01,2013-07-05 23:22:00,
2013-07-05 19:27:00,82.7,75.2,30.10,ENE,65,1.0,10.0,78,0.00,,---,0.08,VWS V14.01,2013-07-05 23:27:00,
2013-07-05 19:32:00,82.5,74.9,30.10,East,98,2.0,3.0,78,0.00,,---,0.08,VWS V14.01,2013-07-05 23:32:00,
2013-07-05 19:37:00,82.4,75.2,30.11,East,80,0.0,3.0,79,0.00,,---,0.08,VWS V14.01,2013-07-05 23:37:00,
2013-07-05 19:42:00,82.2,75.0,30.11,SE,138,0.0,6.0,79,0.00,,---,0.08,VWS V14.01,2013-07-05 23:42:00,
2013-07-05 19:43:00,82.1,74.9,30.11,ESE,113,1.0,6.0,79,0.00,,---,0.08,VWS V14.01,2013-07-05 23:43:00,
2013-07-05 19:48:00,81.9,75.1,30.11,ENE,75,1.0,6.0,80,0.00,,---,0.08,VWS V14.01,2013-07-05 23:48:00,
2013-07-05 19:54:00,81.7,75.3,30.11,ESE,105,0.0,6.0,81,0.00,,---,0.08,VWS V14.01,2013-07-05 23:54:00,
2013-07-05 19:59:00,81.5,75.1,30.11,NE,49,2.0,6.0,81,0.00,,---,0.08,VWS V14.01,2013-07-05 23:59:00,
2013-07-05 20:04:00,81.3,75.3,30.11,ESE,115,0.0,2.0,82,0.00,,---,0.08,VWS V14.01,2013-07-06 00:04:00,
2013-07-05 20:09:00,81.1,75.1,30.11,ESE,112,0.0,3.0,82,0.00,,---,0.08,VWS V14.01,2013-07-06 00:09:00,
2013-07-05 20:14:00,80.9,75.3,30.11,ESE,112,1.0,4.0,83,0.00,,---,0.08,VWS V14.01,2013-07-06 00:14:00,
2013-07-05 20:19:00,80.8,75.2,30.11,ESE,122,0.0,4.0,83,0.00,,---,0.08,VWS V14.01,2013-07-06 00:19:00,
2013-07-05 20:24:00,80.6,75.0,30.11,SE,132,0.0,4.0,83,0.00,,---,0.08,VWS V14.01,2013-07-06 00:24:00,
2013-07-05 20:29:00,80.5,74.9,30.11,SE,131,1.0,4.0,83,0.00,,---,0.08,VWS V14.01,2013-07-06 00:29:00,
2013-07-05 20:34:00,80.3,75.0,30.11,ENE,68,0.0,2.0,84,0.00,,---,0.08,VWS V14.01,2013-07-06 00:34:00,
2013-07-05 20:35:00,80.3,75.0,30.11,ENE,77,0.0,2.0,84,0.00,,---,0.08,VWS V14.01,2013-07-06 00:35:00,
2013-07-05 20:40:00,80.2,74.9,30.11,ESE,118,0.0,2.0,84,0.00,,---,0.08,VWS V14.01,2013-07-06 00:40:00,
2013-07-05 20:46:00,80.1,74.8,30.12,NE,49,1.0,3.0,84,0.00,,---,0.08,VWS V14.01,2013-07-06 00:46:00,
2013-07-05 20:51:00,80.0,75.1,30.12,ENE,77,0.0,4.0,85,0.00,,---,0.08,VWS V14.01,2013-07-06 00:51:00,
2013-07-05 20:56:00,80.0,75.1,30.12,ESE,119,0.0,4.0,85,0.00,,---,0.08,VWS V14.01,2013-07-06 00:56:00,
2013-07-05 21:01:00,79.9,74.6,30.12,SE,131,0.0,4.0,84,0.00,,---,0.08,VWS V14.01,2013-07-06 01:01:00,
2013-07-05 21:02:00,79.9,74.6,30.12,NNE,29,1.0,4.0,84,0.00,,---,0.08,VWS V14.01,2013-07-06 01:02:00,
2013-07-05 21:06:00,79.8,74.5,30.12,East,82,0.0,4.0,84,0.00,,---,0.08,VWS V14.01,2013-07-06 01:06:00,
2013-07-05 21:11:00,79.8,74.5,30.12,North,359,1.0,4.0,84,0.00,,---,0.08,VWS V14.01,2013-07-06 01:11:00,
2013-07-05 21:16:00,79.7,74.8,30.12,SSE,160,0.0,4.0,85,0.00,,---,0.08,VWS V14.01,2013-07-06 01:16:00,
2013-07-05 21:22:00,79.7,74.8,30.12,ENE,71,1.0,4.0,85,0.00,,---,0.08,VWS V14.01,2013-07-06 01:22:00,
2013-07-05 21:27:00,79.6,74.7,30.12,ENE,60,1.0,4.0,85,0.00,,---,0.08,VWS V14.01,2013-07-06 01:27:00,
2013-07-05 21:32:00,79.5,74.6,30.12,SE,129,0.0,2.0,85,0.00,,---,0.08,VWS V14.01,2013-07-06 01:32:00,
2013-07-05 21:37:00,79.4,74.8,30.12,SE,125,1.0,2.0,86,0.00,,---,0.08,VWS V14.01,2013-07-06 01:37:00,
2013-07-05 21:42:00,79.4,74.8,30.12,SE,138,0.0,2.0,86,0.00,,---,0.08,VWS V14.01,2013-07-06 01:42:00,
2013-07-05 21:47:00,79.4,74.8,30.12,East,81,0.0,2.0,86,0.00,,---,0.08,VWS V14.01,2013-07-06 01:47:00,
2013-07-05 21:52:00,79.4,74.8,30.12,East,79,0.0,2.0,86,0.00,,---,0.08,VWS V14.01,2013-07-06 01:52:00,
2013-07-05 21:57:00,79.3,74.8,30.12,East,91,0.0,2.0,86,0.00,,---,0.08,VWS V14.01,2013-07-06 01:57:00,
2013-07-05 22:02:00,79.3,74.8,30.12,ESE,113,0.0,2.0,86,0.00,,---,0.08,VWS V14.01,2013-07-06 02:02:00,
2013-07-05 22:08:00,79.3,74.8,30.13,SE,145,0.0,2.0,86,0.00,,---,0.08,VWS V14.01,2013-07-06 02:08:00,
2013-07-05 22:13:00,79.3,74.8,30.13,East,100,0.0,3.0,86,0.00,,---,0.08,VWS V14.01,2013-07-06 02:13:00,
2013-07-05 22:18:00,79.3,74.8,30.13,ENE,78,0.0,3.0,86,0.00,,---,0.08,VWS V14.01,2013-07-06 02:18:00,
2013-07-05 22:23:00,79.2,75.0,30.14,ESE,108,0.0,3.0,87,0.00,,---,0.08,VWS V14.01,2013-07-06 02:23:00,
2013-07-05 22:28:00,79.2,75.0,30.14,SE,129,0.0,3.0,87,0.00,,---,0.08,VWS V14.01,2013-07-06 02:28:00,
2013-07-05 22:33:00,79.1,74.9,30.14,SE,129,0.0,1.0,87,0.00,,---,0.08,VWS V14.01,2013-07-06 02:33:00,
2013-07-05 22:38:00,79.0,74.8,30.14,East,82,0.0,1.0,87,0.00,,---,0.08,VWS V14.01,2013-07-06 02:38:00,
2013-07-05 22:39:00,79.0,74.8,30.14,East,82,0.0,1.0,87,0.00,,---,0.08,VWS V14.01,2013-07-06 02:39:00,
2013-07-05 22:44:00,78.9,75.1,30.15,SE,126,0.0,1.0,88,0.00,,---,0.08,VWS V14.01,2013-07-06 02:44:00,
2013-07-05 22:49:00,78.9,75.1,30.15,East,88,0.0,1.0,88,0.00,,---,0.08,VWS V14.01,2013-07-06 02:49:00,
2013-07-05 22:54:00,78.8,74.9,30.15,ESE,119,0.0,2.0,88,0.00,,---,0.08,VWS V14.01,2013-07-06 02:54:00,
2013-07-05 22:59:00,78.7,74.8,30.15,ESE,102,0.0,2.0,88,0.00,,---,0.08,VWS V14.01,2013-07-06 02:59:00,
2013-07-05 23:04:00,78.6,75.1,30.14,WSW,242,0.0,2.0,89,0.00,,---,0.08,VWS V14.01,2013-07-06 03:04:00,
2013-07-05 23:09:00,78.6,75.1,30.14,East,101,0.0,2.0,89,0.00,,---,0.08,VWS V14.01,2013-07-06 03:09:00,
2013-07-05 23:14:00,78.5,75.0,30.15,ENE,64,0.0,2.0,89,0.00,,---,0.08,VWS V14.01,2013-07-06 03:14:00,
2013-07-05 23:19:00,78.4,74.9,30.15,South,185,0.0,2.0,89,0.00,,---,0.08,VWS V14.01,2013-07-06 03:19:00,
2013-07-05 23:25:00,78.3,74.8,30.15,ESE,103,0.0,2.0,89,0.00,,---,0.08,VWS V14.01,2013-07-06 03:25:00,
2013-07-05 23:30:00,78.2,74.7,30.15,ESE,103,0.0,2.0,89,0.00,,---,0.08,VWS V14.01,2013-07-06 03:30:00,
2013-07-05 23:35:00,78.2,74.7,30.15,East,98,0.0,0.0,89,0.00,,---,0.08,VWS V14.01,2013-07-06 03:35:00,
2013-07-05 23:40:00,78.1,74.9,30.15,East,98,0.0,0.0,90,0.00,,---,0.08,VWS V14.01,2013-07-06 03:40:00,
2013-07-05 23:45:00,78.1,74.9,30.15,SE,141,0.0,1.0,90,0.00,,---,0.08,VWS V14.01,2013-07-06 03:45:00,
2013-07-05 23:46:00,78.1,74.9,30.15,ESE,116,0.0,1.0,90,0.00,,---,0.08,VWS V14.01,2013-07-06 03:46:00,
2013-07-05 23:51:00,78.2,74.7,30.15,SSE,149,0.0,3.0,89,0.00,,---,0.08,VWS V14.01,2013-07-06 03:51:00,
2013-07-05 23:56:00,78.4,74.9,30.15,SE,145,0.0,3.0,89,0.00,,---,0.08,VWS V14.01,2013-07-06 03:56:00,